sensor_id;sensor_type;location;lat;lon;timestamp;P1;durP1;ratioP1;P2;durP2;ratioP2
12719;SDS011;6424;48.520;11.228;2023-07-29T00:01:00;4.40;;;3.10;;
12719;SDS011;6424;48.520;11.228;2023-07-29T00:03:41;3.77;;;3.47;;
12719;SDS011;6424;48.520;11.228;2023-07-29T00:06:23;4.13;;;3.10;;
12719;SDS011;6424;48.520;11.228;2023-07-29T00:09:04;4.00;;;3.20;;
12719;SDS011;6424;48.520;11.228;2023-07-29T00:11:44;3.90;;;3.53;;
12719;SDS011;6424;48.520;11.228;2023-07-29T00:14:25;3.70;;;3.40;;
12719;SDS011;6424;48.520;11.228;2023-07-29T00:17:06;3.87;;;3.40;;
12719;SDS011;6424;48.520;11.228;2023-07-29T00:19:47;4.60;;;3.80;;
12719;SDS011;6424;48.520;11.228;2023-07-29T00:22:27;6.00;;;3.60;;
12719;SDS011;6424;48.520;11.228;2023-07-29T00:25:08;4.53;;;3.70;;
12719;SDS011;6424;48.520;11.228;2023-07-29T00:27:34;3.67;;;3.37;;
12719;SDS011;6424;48.520;11.228;2023-07-29T00:30:15;3.80;;;3.43;;
12719;SDS011;6424;48.520;11.228;2023-07-29T00:32:55;3.50;;;3.20;;
12719;SDS011;6424;48.520;11.228;2023-07-29T00:35:36;3.57;;;3.27;;
12719;SDS011;6424;48.520;11.228;2023-07-29T00:38:17;3.37;;;3.03;;
12719;SDS011;6424;48.520;11.228;2023-07-29T00:40:57;4.23;;;3.63;;
12719;SDS011;6424;48.520;11.228;2023-07-29T00:43:40;3.80;;;3.43;;
12719;SDS011;6424;48.520;11.228;2023-07-29T00:46:20;4.60;;;3.50;;
12719;SDS011;6424;48.520;11.228;2023-07-29T00:49:02;5.93;;;3.13;;
12719;SDS011;6424;48.520;11.228;2023-07-29T00:51:43;3.40;;;3.10;;
12719;SDS011;6424;48.520;11.228;2023-07-29T00:54:24;3.63;;;3.33;;
12719;SDS011;6424;48.520;11.228;2023-07-29T00:57:05;3.53;;;3.23;;
12719;SDS011;6424;48.520;11.228;2023-07-29T00:59:48;3.43;;;3.13;;
12719;SDS011;6424;48.520;11.228;2023-07-29T01:02:29;3.00;;;2.70;;
12719;SDS011;6424;48.520;11.228;2023-07-29T01:05:13;3.30;;;2.90;;
12719;SDS011;6424;48.520;11.228;2023-07-29T01:08:02;4.30;;;3.50;;
12719;SDS011;6424;48.520;11.228;2023-07-29T01:17:03;5.03;;;4.07;;
12719;SDS011;6424;48.520;11.228;2023-07-29T01:20:02;3.60;;;3.30;;
12719;SDS011;6424;48.520;11.228;2023-07-29T01:22:47;4.70;;;3.63;;
12719;SDS011;6424;48.520;11.228;2023-07-29T01:25:28;4.17;;;3.77;;
12719;SDS011;6424;48.520;11.228;2023-07-29T01:28:09;4.07;;;3.67;;
12719;SDS011;6424;48.520;11.228;2023-07-29T01:30:51;4.27;;;3.83;;
12719;SDS011;6424;48.520;11.228;2023-07-29T01:33:39;5.77;;;3.90;;
12719;SDS011;6424;48.520;11.228;2023-07-29T01:36:38;3.73;;;3.33;;
12719;SDS011;6424;48.520;11.228;2023-07-29T01:39:22;4.40;;;4.00;;
12719;SDS011;6424;48.520;11.228;2023-07-29T01:42:05;4.20;;;3.80;;
12719;SDS011;6424;48.520;11.228;2023-07-29T01:44:47;4.90;;;4.40;;
12719;SDS011;6424;48.520;11.228;2023-07-29T01:47:28;4.77;;;4.10;;
12719;SDS011;6424;48.520;11.228;2023-07-29T01:50:08;4.50;;;4.10;;
12719;SDS011;6424;48.520;11.228;2023-07-29T01:52:49;4.87;;;4.37;;
12719;SDS011;6424;48.520;11.228;2023-07-29T01:55:30;4.80;;;4.07;;
12719;SDS011;6424;48.520;11.228;2023-07-29T01:58:11;4.33;;;4.00;;
12719;SDS011;6424;48.520;11.228;2023-07-29T02:00:53;4.77;;;3.50;;
12719;SDS011;6424;48.520;11.228;2023-07-29T02:03:18;4.53;;;4.13;;
12719;SDS011;6424;48.520;11.228;2023-07-29T02:05:59;10.23;;;3.60;;
12719;SDS011;6424;48.520;11.228;2023-07-29T02:08:40;3.50;;;3.20;;
12719;SDS011;6424;48.520;11.228;2023-07-29T02:11:21;3.83;;;3.53;;
12719;SDS011;6424;48.520;11.228;2023-07-29T02:14:07;6.60;;;3.63;;
12719;SDS011;6424;48.520;11.228;2023-07-29T02:16:48;3.40;;;3.10;;
12719;SDS011;6424;48.520;11.228;2023-07-29T02:19:29;5.77;;;3.80;;
12719;SDS011;6424;48.520;11.228;2023-07-29T02:22:12;4.10;;;3.80;;
12719;SDS011;6424;48.520;11.228;2023-07-29T02:24:54;3.93;;;3.60;;
12719;SDS011;6424;48.520;11.228;2023-07-29T02:27:35;3.87;;;3.50;;
12719;SDS011;6424;48.520;11.228;2023-07-29T02:30:16;5.03;;;3.50;;
12719;SDS011;6424;48.520;11.228;2023-07-29T02:32:56;4.77;;;3.70;;
12719;SDS011;6424;48.520;11.228;2023-07-29T02:35:37;4.63;;;3.40;;
12719;SDS011;6424;48.520;11.228;2023-07-29T02:38:18;3.60;;;3.30;;
12719;SDS011;6424;48.520;11.228;2023-07-29T02:40:44;4.30;;;3.40;;
12719;SDS011;6424;48.520;11.228;2023-07-29T02:43:24;4.20;;;3.67;;
12719;SDS011;6424;48.520;11.228;2023-07-29T02:46:05;4.93;;;3.50;;
12719;SDS011;6424;48.520;11.228;2023-07-29T02:48:46;4.57;;;3.50;;
12719;SDS011;6424;48.520;11.228;2023-07-29T02:51:26;3.83;;;3.43;;
12719;SDS011;6424;48.520;11.228;2023-07-29T02:54:07;5.10;;;3.20;;
12719;SDS011;6424;48.520;11.228;2023-07-29T02:56:49;3.43;;;3.13;;
12719;SDS011;6424;48.520;11.228;2023-07-29T02:59:30;3.73;;;3.33;;
12719;SDS011;6424;48.520;11.228;2023-07-29T03:02:11;3.70;;;3.17;;
12719;SDS011;6424;48.520;11.228;2023-07-29T03:04:52;3.30;;;3.00;;
12719;SDS011;6424;48.520;11.228;2023-07-29T03:07:33;3.53;;;2.73;;
12719;SDS011;6424;48.520;11.228;2023-07-29T03:10:13;4.07;;;3.10;;
12719;SDS011;6424;48.520;11.228;2023-07-29T03:12:55;4.03;;;3.10;;
12719;SDS011;6424;48.520;11.228;2023-07-29T03:15:36;3.20;;;2.90;;
12719;SDS011;6424;48.520;11.228;2023-07-29T03:18:02;3.83;;;2.90;;
12719;SDS011;6424;48.520;11.228;2023-07-29T03:20:43;3.30;;;2.97;;
12719;SDS011;6424;48.520;11.228;2023-07-29T03:23:24;4.60;;;3.07;;
12719;SDS011;6424;48.520;11.228;2023-07-29T03:26:04;3.83;;;2.70;;
12719;SDS011;6424;48.520;11.228;2023-07-29T03:28:51;3.53;;;3.07;;
12719;SDS011;6424;48.520;11.228;2023-07-29T03:31:32;3.27;;;2.97;;
12719;SDS011;6424;48.520;11.228;2023-07-29T03:34:12;5.37;;;3.20;;
12719;SDS011;6424;48.520;11.228;2023-07-29T03:36:53;4.83;;;2.93;;
12719;SDS011;6424;48.520;11.228;2023-07-29T03:39:34;3.50;;;3.20;;
12719;SDS011;6424;48.520;11.228;2023-07-29T03:42:14;4.47;;;3.20;;
12719;SDS011;6424;48.520;11.228;2023-07-29T03:44:55;5.00;;;3.10;;
12719;SDS011;6424;48.520;11.228;2023-07-29T03:47:36;2.90;;;2.70;;
12719;SDS011;6424;48.520;11.228;2023-07-29T03:50:17;3.67;;;3.37;;
12719;SDS011;6424;48.520;11.228;2023-07-29T03:52:57;3.90;;;3.00;;
12719;SDS011;6424;48.520;11.228;2023-07-29T03:55:38;3.20;;;2.90;;
12719;SDS011;6424;48.520;11.228;2023-07-29T03:58:19;3.40;;;3.10;;
12719;SDS011;6424;48.520;11.228;2023-07-29T04:00:59;4.07;;;2.83;;
12719;SDS011;6424;48.520;11.228;2023-07-29T04:03:40;4.00;;;3.23;;
12719;SDS011;6424;48.520;11.228;2023-07-29T04:06:21;3.13;;;2.90;;
12719;SDS011;6424;48.520;11.228;2023-07-29T04:09:02;4.17;;;3.27;;
12719;SDS011;6424;48.520;11.228;2023-07-29T04:11:43;3.40;;;3.10;;
12719;SDS011;6424;48.520;11.228;2023-07-29T04:14:24;5.50;;;3.10;;
12719;SDS011;6424;48.520;11.228;2023-07-29T04:17:05;4.67;;;3.13;;
12719;SDS011;6424;48.520;11.228;2023-07-29T04:19:45;3.33;;;3.03;;
12719;SDS011;6424;48.520;11.228;2023-07-29T04:22:11;3.33;;;3.03;;
12719;SDS011;6424;48.520;11.228;2023-07-29T04:24:52;3.30;;;3.00;;
12719;SDS011;6424;48.520;11.228;2023-07-29T04:27:33;5.43;;;2.97;;
12719;SDS011;6424;48.520;11.228;2023-07-29T04:30:14;5.00;;;3.40;;
12719;SDS011;6424;48.520;11.228;2023-07-29T04:32:55;3.43;;;3.13;;
12719;SDS011;6424;48.520;11.228;2023-07-29T04:35:36;3.07;;;2.77;;
12719;SDS011;6424;48.520;11.228;2023-07-29T04:38:17;3.00;;;2.70;;
12719;SDS011;6424;48.520;11.228;2023-07-29T04:40:42;3.67;;;2.50;;
12719;SDS011;6424;48.520;11.228;2023-07-29T04:43:26;4.33;;;2.63;;
12719;SDS011;6424;48.520;11.228;2023-07-29T04:46:07;4.33;;;2.83;;
12719;SDS011;6424;48.520;11.228;2023-07-29T04:48:48;3.37;;;2.43;;
12719;SDS011;6424;48.520;11.228;2023-07-29T04:51:29;3.53;;;2.50;;
12719;SDS011;6424;48.520;11.228;2023-07-29T04:54:11;2.40;;;2.20;;
12719;SDS011;6424;48.520;11.228;2023-07-29T04:56:52;4.60;;;2.70;;
12719;SDS011;6424;48.520;11.228;2023-07-29T04:59:18;2.50;;;2.30;;
12719;SDS011;6424;48.520;11.228;2023-07-29T05:01:58;2.87;;;2.30;;
12719;SDS011;6424;48.520;11.228;2023-07-29T05:04:39;4.07;;;2.27;;
12719;SDS011;6424;48.520;11.228;2023-07-29T05:07:20;2.80;;;2.30;;
12719;SDS011;6424;48.520;11.228;2023-07-29T05:10:01;2.30;;;2.10;;
12719;SDS011;6424;48.520;11.228;2023-07-29T05:12:41;2.17;;;1.97;;
12719;SDS011;6424;48.520;11.228;2023-07-29T05:15:22;3.83;;;2.23;;
12719;SDS011;6424;48.520;11.228;2023-07-29T05:18:03;2.33;;;2.10;;
12719;SDS011;6424;48.520;11.228;2023-07-29T05:20:44;3.60;;;2.20;;
12719;SDS011;6424;48.520;11.228;2023-07-29T05:23:10;2.60;;;2.40;;
12719;SDS011;6424;48.520;11.228;2023-07-29T05:25:51;4.43;;;2.40;;
12719;SDS011;6424;48.520;11.228;2023-07-29T05:28:31;4.13;;;2.37;;
12719;SDS011;6424;48.520;11.228;2023-07-29T05:31:12;3.47;;;2.17;;
12719;SDS011;6424;48.520;11.228;2023-07-29T05:33:38;3.93;;;2.20;;
12719;SDS011;6424;48.520;11.228;2023-07-29T05:36:19;2.30;;;2.07;;
12719;SDS011;6424;48.520;11.228;2023-07-29T05:38:59;2.40;;;2.07;;
12719;SDS011;6424;48.520;11.228;2023-07-29T05:41:40;3.27;;;2.50;;
12719;SDS011;6424;48.520;11.228;2023-07-29T05:44:21;2.70;;;2.40;;
12719;SDS011;6424;48.520;11.228;2023-07-29T05:47:01;2.67;;;2.10;;
12719;SDS011;6424;48.520;11.228;2023-07-29T05:49:43;2.33;;;2.13;;
12719;SDS011;6424;48.520;11.228;2023-07-29T05:52:23;2.80;;;2.50;;
12719;SDS011;6424;48.520;11.228;2023-07-29T05:55:04;2.83;;;2.50;;
12719;SDS011;6424;48.520;11.228;2023-07-29T05:57:45;3.97;;;2.27;;
12719;SDS011;6424;48.520;11.228;2023-07-29T06:00:26;3.70;;;2.43;;
12719;SDS011;6424;48.520;11.228;2023-07-29T06:03:07;2.20;;;1.90;;
12719;SDS011;6424;48.520;11.228;2023-07-29T06:05:48;2.97;;;2.47;;
12719;SDS011;6424;48.520;11.228;2023-07-29T06:08:29;2.53;;;2.27;;
12719;SDS011;6424;48.520;11.228;2023-07-29T06:11:13;2.77;;;2.20;;
12719;SDS011;6424;48.520;11.228;2023-07-29T06:13:53;2.80;;;2.60;;
12719;SDS011;6424;48.520;11.228;2023-07-29T06:16:34;3.73;;;2.53;;
12719;SDS011;6424;48.520;11.228;2023-07-29T06:19:15;2.60;;;2.40;;
12719;SDS011;6424;48.520;11.228;2023-07-29T06:21:56;2.67;;;2.20;;
12719;SDS011;6424;48.520;11.228;2023-07-29T06:24:36;2.67;;;2.47;;
12719;SDS011;6424;48.520;11.228;2023-07-29T06:27:17;5.23;;;2.77;;
12719;SDS011;6424;48.520;11.228;2023-07-29T06:29:58;4.50;;;2.57;;
12719;SDS011;6424;48.520;11.228;2023-07-29T06:32:39;3.50;;;2.27;;
12719;SDS011;6424;48.520;11.228;2023-07-29T06:35:04;5.37;;;2.53;;
12719;SDS011;6424;48.520;11.228;2023-07-29T06:37:45;3.00;;;2.23;;
12719;SDS011;6424;48.520;11.228;2023-07-29T06:40:26;4.17;;;2.87;;
12719;SDS011;6424;48.520;11.228;2023-07-29T06:43:07;3.10;;;2.53;;
12719;SDS011;6424;48.520;11.228;2023-07-29T06:45:48;4.23;;;2.70;;
12719;SDS011;6424;48.520;11.228;2023-07-29T06:48:29;4.37;;;2.57;;
12719;SDS011;6424;48.520;11.228;2023-07-29T06:51:09;4.60;;;3.00;;
12719;SDS011;6424;48.520;11.228;2023-07-29T06:53:50;4.23;;;2.67;;
12719;SDS011;6424;48.520;11.228;2023-07-29T06:56:31;4.07;;;2.60;;
12719;SDS011;6424;48.520;11.228;2023-07-29T06:59:12;3.33;;;2.80;;
12719;SDS011;6424;48.520;11.228;2023-07-29T07:01:52;3.57;;;2.50;;
12719;SDS011;6424;48.520;11.228;2023-07-29T07:04:33;3.87;;;2.60;;
12719;SDS011;6424;48.520;11.228;2023-07-29T07:07:14;2.80;;;2.50;;
12719;SDS011;6424;48.520;11.228;2023-07-29T07:09:56;3.33;;;2.40;;
12719;SDS011;6424;48.520;11.228;2023-07-29T07:12:36;4.43;;;2.67;;
12719;SDS011;6424;48.520;11.228;2023-07-29T07:15:02;4.53;;;2.70;;
12719;SDS011;6424;48.520;11.228;2023-07-29T07:17:43;3.43;;;2.37;;
12719;SDS011;6424;48.520;11.228;2023-07-29T07:20:24;8.20;;;2.77;;
12719;SDS011;6424;48.520;11.228;2023-07-29T07:22:50;3.33;;;2.53;;
12719;SDS011;6424;48.520;11.228;2023-07-29T07:25:31;3.30;;;2.83;;
12719;SDS011;6424;48.520;11.228;2023-07-29T07:28:12;5.23;;;3.00;;
12719;SDS011;6424;48.520;11.228;2023-07-29T07:30:52;4.80;;;2.93;;
12719;SDS011;6424;48.520;11.228;2023-07-29T07:33:35;4.47;;;2.63;;
12719;SDS011;6424;48.520;11.228;2023-07-29T07:36:16;4.70;;;3.00;;
12719;SDS011;6424;48.520;11.228;2023-07-29T07:38:42;2.87;;;2.67;;
12719;SDS011;6424;48.520;11.228;2023-07-29T07:41:23;4.13;;;2.90;;
12719;SDS011;6424;48.520;11.228;2023-07-29T07:44:04;3.57;;;2.70;;
12719;SDS011;6424;48.520;11.228;2023-07-29T07:46:45;5.17;;;2.77;;
12719;SDS011;6424;48.520;11.228;2023-07-29T07:49:26;2.77;;;2.57;;
12719;SDS011;6424;48.520;11.228;2023-07-29T07:52:06;4.87;;;2.90;;
12719;SDS011;6424;48.520;11.228;2023-07-29T07:54:51;3.93;;;2.93;;
12719;SDS011;6424;48.520;11.228;2023-07-29T07:57:33;4.97;;;3.07;;
12719;SDS011;6424;48.520;11.228;2023-07-29T08:00:14;7.07;;;3.53;;
12719;SDS011;6424;48.520;11.228;2023-07-29T08:02:41;6.80;;;3.33;;
12719;SDS011;6424;48.520;11.228;2023-07-29T08:05:21;7.53;;;2.60;;
12719;SDS011;6424;48.520;11.228;2023-07-29T08:08:02;4.57;;;3.03;;
12719;SDS011;6424;48.520;11.228;2023-07-29T08:10:43;3.20;;;2.90;;
12719;SDS011;6424;48.520;11.228;2023-07-29T08:13:24;4.60;;;3.37;;
12719;SDS011;6424;48.520;11.228;2023-07-29T08:16:05;3.60;;;3.13;;
12719;SDS011;6424;48.520;11.228;2023-07-29T08:18:45;4.23;;;2.80;;
12719;SDS011;6424;48.520;11.228;2023-07-29T08:21:27;5.23;;;3.33;;
12719;SDS011;6424;48.520;11.228;2023-07-29T08:24:08;3.10;;;2.80;;
12719;SDS011;6424;48.520;11.228;2023-07-29T08:26:48;4.10;;;3.10;;
12719;SDS011;6424;48.520;11.228;2023-07-29T08:29:29;3.13;;;2.83;;
12719;SDS011;6424;48.520;11.228;2023-07-29T08:32:10;4.63;;;3.20;;
12719;SDS011;6424;48.520;11.228;2023-07-29T08:34:51;3.93;;;3.13;;
12719;SDS011;6424;48.520;11.228;2023-07-29T08:37:31;3.30;;;2.90;;
12719;SDS011;6424;48.520;11.228;2023-07-29T08:40:12;3.83;;;3.17;;
12719;SDS011;6424;48.520;11.228;2023-07-29T08:42:53;3.53;;;3.10;;
12719;SDS011;6424;48.520;11.228;2023-07-29T08:45:37;3.90;;;3.03;;
12719;SDS011;6424;48.520;11.228;2023-07-29T08:48:23;3.60;;;3.03;;
12719;SDS011;6424;48.520;11.228;2023-07-29T08:51:10;5.90;;;3.30;;
12719;SDS011;6424;48.520;11.228;2023-07-29T08:53:51;5.47;;;2.80;;
12719;SDS011;6424;48.520;11.228;2023-07-29T08:56:33;3.80;;;3.40;;
12719;SDS011;6424;48.520;11.228;2023-07-29T08:59:14;3.90;;;3.27;;
12719;SDS011;6424;48.520;11.228;2023-07-29T09:01:57;3.80;;;3.10;;
12719;SDS011;6424;48.520;11.228;2023-07-29T09:04:38;4.63;;;3.57;;
12719;SDS011;6424;48.520;11.228;2023-07-29T09:07:19;5.93;;;3.13;;
12719;SDS011;6424;48.520;11.228;2023-07-29T09:10:00;4.40;;;3.27;;
12719;SDS011;6424;48.520;11.228;2023-07-29T09:12:41;3.67;;;3.20;;
12719;SDS011;6424;48.520;11.228;2023-07-29T09:15:26;3.57;;;3.27;;
12719;SDS011;6424;48.520;11.228;2023-07-29T09:18:12;3.43;;;3.13;;
12719;SDS011;6424;48.520;11.228;2023-07-29T09:20:58;3.47;;;3.17;;
12719;SDS011;6424;48.520;11.228;2023-07-29T09:23:41;3.80;;;3.50;;
12719;SDS011;6424;48.520;11.228;2023-07-29T09:26:26;3.20;;;2.90;;
12719;SDS011;6424;48.520;11.228;2023-07-29T09:29:08;5.77;;;3.50;;
12719;SDS011;6424;48.520;11.228;2023-07-29T09:31:48;3.53;;;3.23;;
12719;SDS011;6424;48.520;11.228;2023-07-29T09:34:29;4.43;;;3.03;;
12719;SDS011;6424;48.520;11.228;2023-07-29T09:37:15;3.33;;;3.00;;
12719;SDS011;6424;48.520;11.228;2023-07-29T09:39:56;4.77;;;3.73;;
12719;SDS011;6424;48.520;11.228;2023-07-29T09:42:37;4.00;;;2.93;;
12719;SDS011;6424;48.520;11.228;2023-07-29T09:45:21;5.23;;;3.47;;
12719;SDS011;6424;48.520;11.228;2023-07-29T09:48:04;3.67;;;3.33;;
12719;SDS011;6424;48.520;11.228;2023-07-29T09:50:49;4.60;;;3.73;;
12719;SDS011;6424;48.520;11.228;2023-07-29T09:53:30;5.50;;;4.20;;
12719;SDS011;6424;48.520;11.228;2023-07-29T09:56:11;7.13;;;4.40;;
12719;SDS011;6424;48.520;11.228;2023-07-29T09:58:52;6.00;;;3.87;;
12719;SDS011;6424;48.520;11.228;2023-07-29T10:01:35;5.13;;;4.00;;
12719;SDS011;6424;48.520;11.228;2023-07-29T10:04:16;5.43;;;4.30;;
12719;SDS011;6424;48.520;11.228;2023-07-29T10:06:57;4.47;;;4.03;;
12719;SDS011;6424;48.520;11.228;2023-07-29T10:09:40;4.20;;;3.80;;
12719;SDS011;6424;48.520;11.228;2023-07-29T10:12:21;4.37;;;3.80;;
12719;SDS011;6424;48.520;11.228;2023-07-29T10:14:47;4.73;;;3.40;;
12719;SDS011;6424;48.520;11.228;2023-07-29T10:17:29;4.33;;;3.70;;
12719;SDS011;6424;48.520;11.228;2023-07-29T10:20:13;6.03;;;4.17;;
12719;SDS011;6424;48.520;11.228;2023-07-29T10:22:40;4.27;;;3.87;;
12719;SDS011;6424;48.520;11.228;2023-07-29T10:25:22;5.07;;;4.47;;
12719;SDS011;6424;48.520;11.228;2023-07-29T10:28:05;5.30;;;3.70;;
12719;SDS011;6424;48.520;11.228;2023-07-29T10:30:47;4.10;;;3.70;;
12719;SDS011;6424;48.520;11.228;2023-07-29T10:33:28;4.13;;;3.73;;
12719;SDS011;6424;48.520;11.228;2023-07-29T10:36:13;4.87;;;4.13;;
12719;SDS011;6424;48.520;11.228;2023-07-29T10:38:55;4.17;;;3.77;;
12719;SDS011;6424;48.520;11.228;2023-07-29T10:41:55;3.80;;;3.40;;
12719;SDS011;6424;48.520;11.228;2023-07-29T10:47:24;4.17;;;3.70;;
12719;SDS011;6424;48.520;11.228;2023-07-29T10:50:14;3.80;;;3.50;;
12719;SDS011;6424;48.520;11.228;2023-07-29T10:52:43;4.40;;;3.50;;
12719;SDS011;6424;48.520;11.228;2023-07-29T10:55:24;3.80;;;3.50;;
12719;SDS011;6424;48.520;11.228;2023-07-29T11:00:56;3.40;;;3.00;;
12719;SDS011;6424;48.520;11.228;2023-07-29T11:03:37;2.87;;;2.57;;
12719;SDS011;6424;48.520;11.228;2023-07-29T11:06:18;2.53;;;2.33;;
12719;SDS011;6424;48.520;11.228;2023-07-29T11:08:59;2.63;;;2.43;;
12719;SDS011;6424;48.520;11.228;2023-07-29T11:11:40;3.20;;;2.10;;
12719;SDS011;6424;48.520;11.228;2023-07-29T11:14:20;2.37;;;2.13;;
12719;SDS011;6424;48.520;11.228;2023-07-29T11:17:02;2.43;;;2.23;;
12719;SDS011;6424;48.520;11.228;2023-07-29T11:19:45;2.33;;;2.13;;
12719;SDS011;6424;48.520;11.228;2023-07-29T11:22:27;3.10;;;2.20;;
12719;SDS011;6424;48.520;11.228;2023-07-29T11:25:09;2.87;;;2.40;;
12719;SDS011;6424;48.520;11.228;2023-07-29T11:27:52;2.57;;;2.37;;
12719;SDS011;6424;48.520;11.228;2023-07-29T11:30:34;2.57;;;2.37;;
12719;SDS011;6424;48.520;11.228;2023-07-29T11:33:04;2.67;;;2.47;;
12719;SDS011;6424;48.520;11.228;2023-07-29T11:35:45;2.33;;;2.00;;
12719;SDS011;6424;48.520;11.228;2023-07-29T11:38:26;2.70;;;2.50;;
12719;SDS011;6424;48.520;11.228;2023-07-29T11:41:07;2.10;;;1.90;;
12719;SDS011;6424;48.520;11.228;2023-07-29T11:43:48;2.53;;;2.33;;
12719;SDS011;6424;48.520;11.228;2023-07-29T11:46:13;3.43;;;2.20;;
12719;SDS011;6424;48.520;11.228;2023-07-29T11:48:39;2.37;;;2.17;;
12719;SDS011;6424;48.520;11.228;2023-07-29T11:51:25;2.60;;;2.17;;
12719;SDS011;6424;48.520;11.228;2023-07-29T11:54:06;3.07;;;2.30;;
12719;SDS011;6424;48.520;11.228;2023-07-29T11:56:47;3.60;;;2.50;;
12719;SDS011;6424;48.520;11.228;2023-07-29T11:59:28;3.23;;;2.23;;
12719;SDS011;6424;48.520;11.228;2023-07-29T12:02:11;2.50;;;2.00;;
12719;SDS011;6424;48.520;11.228;2023-07-29T12:04:56;2.90;;;2.20;;
12719;SDS011;6424;48.520;11.228;2023-07-29T12:07:38;2.30;;;2.10;;
12719;SDS011;6424;48.520;11.228;2023-07-29T12:10:19;2.50;;;2.30;;
12719;SDS011;6424;48.520;11.228;2023-07-29T12:13:02;3.37;;;2.40;;
12719;SDS011;6424;48.520;11.228;2023-07-29T12:15:43;4.23;;;2.20;;
12719;SDS011;6424;48.520;11.228;2023-07-29T12:18:29;2.60;;;2.40;;
12719;SDS011;6424;48.520;11.228;2023-07-29T12:21:13;2.13;;;2.00;;
12719;SDS011;6424;48.520;11.228;2023-07-29T12:23:54;7.70;;;2.40;;
12719;SDS011;6424;48.520;11.228;2023-07-29T12:26:20;2.90;;;2.00;;
12719;SDS011;6424;48.520;11.228;2023-07-29T12:29:11;2.10;;;1.60;;
12719;SDS011;6424;48.520;11.228;2023-07-29T12:31:57;2.50;;;1.80;;
12719;SDS011;6424;48.520;11.228;2023-07-29T12:34:42;1.70;;;1.57;;
12719;SDS011;6424;48.520;11.228;2023-07-29T12:37:30;2.30;;;1.40;;
12719;SDS011;6424;48.520;11.228;2023-07-29T12:40:22;1.73;;;1.50;;
12719;SDS011;6424;48.520;11.228;2023-07-29T12:43:04;2.13;;;1.80;;
12719;SDS011;6424;48.520;11.228;2023-07-29T12:45:45;3.60;;;1.73;;
12719;SDS011;6424;48.520;11.228;2023-07-29T12:48:26;2.23;;;1.80;;
12719;SDS011;6424;48.520;11.228;2023-07-29T12:51:06;2.07;;;1.97;;
12719;SDS011;6424;48.520;11.228;2023-07-29T12:53:47;3.57;;;2.07;;
12719;SDS011;6424;48.520;11.228;2023-07-29T12:56:28;2.03;;;1.83;;
12719;SDS011;6424;48.520;11.228;2023-07-29T12:59:10;2.17;;;1.97;;
12719;SDS011;6424;48.520;11.228;2023-07-29T13:01:52;2.17;;;1.97;;
12719;SDS011;6424;48.520;11.228;2023-07-29T13:04:32;2.10;;;1.83;;
12719;SDS011;6424;48.520;11.228;2023-07-29T13:07:13;2.53;;;2.03;;
12719;SDS011;6424;48.520;11.228;2023-07-29T13:09:54;2.00;;;1.80;;
12719;SDS011;6424;48.520;11.228;2023-07-29T13:12:34;2.07;;;1.83;;
12719;SDS011;6424;48.520;11.228;2023-07-29T13:15:15;3.70;;;2.03;;
12719;SDS011;6424;48.520;11.228;2023-07-29T13:17:56;2.30;;;2.00;;
12719;SDS011;6424;48.520;11.228;2023-07-29T13:20:37;3.47;;;2.33;;
12719;SDS011;6424;48.520;11.228;2023-07-29T13:23:02;2.10;;;1.87;;
12719;SDS011;6424;48.520;11.228;2023-07-29T13:25:43;2.33;;;2.03;;
12719;SDS011;6424;48.520;11.228;2023-07-29T13:28:24;4.97;;;1.90;;
12719;SDS011;6424;48.520;11.228;2023-07-29T13:31:05;2.93;;;2.10;;
12719;SDS011;6424;48.520;11.228;2023-07-29T13:33:45;3.30;;;2.00;;
12719;SDS011;6424;48.520;11.228;2023-07-29T13:36:26;2.90;;;2.30;;
12719;SDS011;6424;48.520;11.228;2023-07-29T13:38:53;4.53;;;2.20;;
12719;SDS011;6424;48.520;11.228;2023-07-29T13:41:34;2.77;;;2.47;;
12719;SDS011;6424;48.520;11.228;2023-07-29T13:44:14;3.40;;;2.10;;
12719;SDS011;6424;48.520;11.228;2023-07-29T13:46:55;2.33;;;2.10;;
12719;SDS011;6424;48.520;11.228;2023-07-29T13:49:36;2.13;;;1.87;;
12719;SDS011;6424;48.520;11.228;2023-07-29T13:52:16;2.20;;;1.97;;
12719;SDS011;6424;48.520;11.228;2023-07-29T13:54:42;1.97;;;1.80;;
12719;SDS011;6424;48.520;11.228;2023-07-29T13:57:08;1.80;;;1.67;;
12719;SDS011;6424;48.520;11.228;2023-07-29T13:59:50;1.80;;;1.70;;
12719;SDS011;6424;48.520;11.228;2023-07-29T14:02:31;2.37;;;1.80;;
12719;SDS011;6424;48.520;11.228;2023-07-29T14:05:11;1.73;;;1.63;;
12719;SDS011;6424;48.520;11.228;2023-07-29T14:07:52;1.53;;;1.43;;
12719;SDS011;6424;48.520;11.228;2023-07-29T14:10:33;1.70;;;1.40;;
12719;SDS011;6424;48.520;11.228;2023-07-29T14:13:14;1.67;;;1.50;;
12719;SDS011;6424;48.520;11.228;2023-07-29T14:15:54;1.40;;;1.30;;
12719;SDS011;6424;48.520;11.228;2023-07-29T14:18:35;1.60;;;1.50;;
12719;SDS011;6424;48.520;11.228;2023-07-29T14:21:16;1.63;;;1.50;;
12719;SDS011;6424;48.520;11.228;2023-07-29T14:23:42;1.40;;;1.30;;
12719;SDS011;6424;48.520;11.228;2023-07-29T14:26:08;1.63;;;1.50;;
12719;SDS011;6424;48.520;11.228;2023-07-29T14:28:49;3.60;;;1.80;;
12719;SDS011;6424;48.520;11.228;2023-07-29T14:31:30;1.80;;;1.60;;
12719;SDS011;6424;48.520;11.228;2023-07-29T14:34:11;1.40;;;1.30;;
12719;SDS011;6424;48.520;11.228;2023-07-29T14:36:52;1.90;;;1.40;;
12719;SDS011;6424;48.520;11.228;2023-07-29T14:39:17;1.70;;;1.60;;
12719;SDS011;6424;48.520;11.228;2023-07-29T14:41:43;1.30;;;1.20;;
12719;SDS011;6424;48.520;11.228;2023-07-29T14:44:24;2.37;;;1.50;;
12719;SDS011;6424;48.520;11.228;2023-07-29T14:47:05;1.57;;;1.43;;
12719;SDS011;6424;48.520;11.228;2023-07-29T14:49:46;1.40;;;1.30;;
12719;SDS011;6424;48.520;11.228;2023-07-29T14:52:12;1.73;;;1.50;;
12719;SDS011;6424;48.520;11.228;2023-07-29T14:54:53;1.77;;;1.40;;
12719;SDS011;6424;48.520;11.228;2023-07-29T14:57:33;1.77;;;1.50;;
12719;SDS011;6424;48.520;11.228;2023-07-29T15:00:14;2.03;;;1.60;;
12719;SDS011;6424;48.520;11.228;2023-07-29T15:02:55;2.20;;;1.50;;
12719;SDS011;6424;48.520;11.228;2023-07-29T15:05:21;1.50;;;1.30;;
12719;SDS011;6424;48.520;11.228;2023-07-29T15:08:02;1.50;;;1.40;;
12719;SDS011;6424;48.520;11.228;2023-07-29T15:10:48;2.63;;;1.33;;
12719;SDS011;6424;48.520;11.228;2023-07-29T15:13:29;1.77;;;1.50;;
12719;SDS011;6424;48.520;11.228;2023-07-29T15:16:10;1.67;;;1.33;;
12719;SDS011;6424;48.520;11.228;2023-07-29T15:18:51;2.40;;;1.40;;
12719;SDS011;6424;48.520;11.228;2023-07-29T15:21:32;1.50;;;1.40;;
12719;SDS011;6424;48.520;11.228;2023-07-29T15:24:16;1.53;;;1.37;;
12719;SDS011;6424;48.520;11.228;2023-07-29T15:26:57;1.50;;;1.40;;
12719;SDS011;6424;48.520;11.228;2023-07-29T15:29:37;1.83;;;1.70;;
12719;SDS011;6424;48.520;11.228;2023-07-29T15:32:18;1.63;;;1.53;;
12719;SDS011;6424;48.520;11.228;2023-07-29T15:34:59;1.97;;;1.77;;
12719;SDS011;6424;48.520;11.228;2023-07-29T15:37:40;1.33;;;1.23;;
12719;SDS011;6424;48.520;11.228;2023-07-29T15:40:20;2.20;;;1.30;;
12719;SDS011;6424;48.520;11.228;2023-07-29T15:43:01;1.33;;;1.20;;
12719;SDS011;6424;48.520;11.228;2023-07-29T15:45:42;2.07;;;1.50;;
12719;SDS011;6424;48.520;11.228;2023-07-29T15:48:09;1.70;;;1.50;;
12719;SDS011;6424;48.520;11.228;2023-07-29T15:50:50;2.30;;;1.50;;
12719;SDS011;6424;48.520;11.228;2023-07-29T15:53:31;1.73;;;1.63;;
12719;SDS011;6424;48.520;11.228;2023-07-29T15:56:11;1.97;;;1.60;;
12719;SDS011;6424;48.520;11.228;2023-07-29T15:58:52;1.53;;;1.43;;
12719;SDS011;6424;48.520;11.228;2023-07-29T16:01:33;3.47;;;1.70;;
12719;SDS011;6424;48.520;11.228;2023-07-29T16:04:14;2.70;;;1.60;;
12719;SDS011;6424;48.520;11.228;2023-07-29T16:06:55;2.17;;;1.53;;
12719;SDS011;6424;48.520;11.228;2023-07-29T16:09:36;2.37;;;1.50;;
12719;SDS011;6424;48.520;11.228;2023-07-29T16:12:16;1.63;;;1.50;;
12719;SDS011;6424;48.520;11.228;2023-07-29T16:14:57;4.23;;;1.80;;
12719;SDS011;6424;48.520;11.228;2023-07-29T16:17:38;2.40;;;1.70;;